createdAt,value
2023-01-02T00:01:27.956Z,81.30
2023-01-02T00:03:56.690Z,80.50
2023-01-02T00:06:24.262Z,80.60
2023-01-02T00:08:51.138Z,80.10
2023-01-02T00:11:18.277Z,79.60
2023-01-02T00:13:45.336Z,79.20
2023-01-02T00:16:12.678Z,79.70
2023-01-02T00:18:39.520Z,79.90
2023-01-02T00:21:08.903Z,78.90
2023-01-02T00:23:40.664Z,78.40
2023-01-02T00:26:09.046Z,78.50
2023-01-02T00:28:37.691Z,78.10
2023-01-02T00:31:15.124Z,78.50
2023-01-02T00:33:43.690Z,78.40
2023-01-02T00:36:12.139Z,78.00
2023-01-02T00:38:41.036Z,77.90
2023-01-02T00:41:08.026Z,77.60
2023-01-02T00:43:35.563Z,77.40
2023-01-02T00:46:07.620Z,77.00
2023-01-02T00:48:37.863Z,76.80
2023-01-02T00:51:04.752Z,77.00
2023-01-02T00:53:31.638Z,76.40
2023-01-02T00:55:58.528Z,76.10
2023-01-02T00:58:25.389Z,75.70
2023-01-02T01:00:52.215Z,74.80
2023-01-02T01:03:19.142Z,75.00
2023-01-02T01:05:45.925Z,74.80
2023-01-02T01:08:13.354Z,75.10
2023-01-02T01:10:40.164Z,75.30
2023-01-02T01:13:07.827Z,75.10
2023-01-02T01:15:35.048Z,74.40
2023-01-02T01:18:02.015Z,73.90
2023-01-02T01:20:28.919Z,73.50
2023-01-02T01:22:55.729Z,73.70
2023-01-02T01:25:23.003Z,73.90
2023-01-02T01:27:53.309Z,73.30
2023-01-02T01:30:20.305Z,73.30
2023-01-02T01:32:47.549Z,73.30
2023-01-02T01:35:14.993Z,73.50
2023-01-02T01:37:41.999Z,73.20
2023-01-02T01:40:09.265Z,72.80
2023-01-02T01:42:36.704Z,72.70
2023-01-02T01:45:03.902Z,73.20
2023-01-02T01:47:41.103Z,73.00
2023-01-02T01:50:22.049Z,72.50
2023-01-02T01:53:01.757Z,72.80
2023-01-02T01:55:36.431Z,72.70
2023-01-02T01:58:07.969Z,72.70
2023-01-02T02:00:35.983Z,72.40
2023-01-02T02:03:11.305Z,72.10
2023-01-02T02:05:38.896Z,72.60
2023-01-02T02:08:27.927Z,72.40
2023-01-02T02:10:58.182Z,71.80
2023-01-02T02:13:25.734Z,72.10
2023-01-02T02:16:17.586Z,72.00
2023-01-02T02:18:52.436Z,72.20
2023-01-02T02:21:48.670Z,72.40
2023-01-02T02:24:32.461Z,72.00
2023-01-02T02:27:11.180Z,72.10
2023-01-02T02:29:56.661Z,71.90
2023-01-02T02:32:34.611Z,71.80
2023-01-02T02:35:10.584Z,71.90
2023-01-02T02:37:44.136Z,71.90
2023-01-02T02:40:35.782Z,72.40
2023-01-02T02:43:33.068Z,72.60
2023-01-02T02:46:19.255Z,72.20
2023-01-02T02:49:04.807Z,71.90
2023-01-02T02:51:55.691Z,72.60
2023-01-02T02:54:36.362Z,73.10
2023-01-02T02:57:04.626Z,73.60
2023-01-02T02:59:34.210Z,74.30
2023-01-02T03:02:03.311Z,74.60
2023-01-02T03:04:31.091Z,74.10
2023-01-02T03:07:26.867Z,73.70
2023-01-02T03:10:20.198Z,73.30
2023-01-02T03:13:04.690Z,73.60
2023-01-02T03:15:48.161Z,73.50
2023-01-02T03:18:26.813Z,74.20
2023-01-02T03:21:00.600Z,75.00
2023-01-02T03:23:31.082Z,75.90
2023-01-02T03:25:59.335Z,76.30
2023-01-02T03:28:28.331Z,76.40
2023-01-02T03:30:58.283Z,75.90
2023-01-02T03:33:34.927Z,76.20
2023-01-02T03:36:13.769Z,76.30
2023-01-02T03:38:58.389Z,77.30
2023-01-02T03:41:36.636Z,77.40
2023-01-02T03:44:10.094Z,78.10
2023-01-02T03:46:49.864Z,78.40
2023-01-02T03:49:33.241Z,78.50
2023-01-02T03:52:00.689Z,78.10
2023-01-02T03:54:28.885Z,78.20
2023-01-02T03:57:06.753Z,78.20
2023-01-02T04:00:03.171Z,77.80
2023-01-02T04:02:51.952Z,77.20
2023-01-02T04:05:27.629Z,77.50
2023-01-02T04:08:00.495Z,77.00
2023-01-02T04:10:29.110Z,76.50
2023-01-02T04:13:01.701Z,76.20
2023-01-02T04:15:33.462Z,75.70
2023-01-02T04:18:14.327Z,75.70
2023-01-02T04:20:44.947Z,75.50
2023-01-02T04:23:20.768Z,75.20
2023-01-02T04:25:54.998Z,74.70
2023-01-02T04:28:24.421Z,74.10
2023-01-02T04:31:15.729Z,73.70
2023-01-02T04:33:49.845Z,73.30
2023-01-02T04:36:17.288Z,73.30
2023-01-02T04:38:45.306Z,74.00
2023-01-02T04:41:26.860Z,74.20
2023-01-02T04:43:57.237Z,74.20
2023-01-02T04:46:25.516Z,74.20
2023-01-02T04:48:52.895Z,74.40
2023-01-02T04:51:19.707Z,74.60
2023-01-02T04:53:53.284Z,75.30
2023-01-02T04:56:20.566Z,75.30
2023-01-02T04:58:49.682Z,75.20
2023-01-02T05:01:19.719Z,75.30
2023-01-02T05:03:48.851Z,74.70
2023-01-02T05:06:16.754Z,75.20
2023-01-02T05:08:44.114Z,75.40
2023-01-02T05:11:13.660Z,74.60
2023-01-02T05:13:40.855Z,75.10
2023-01-02T05:16:09.031Z,75.10
2023-01-02T05:18:35.849Z,75.10
2023-01-02T05:21:28.861Z,75.30
2023-01-02T05:23:56.661Z,75.80
2023-01-02T05:26:27.844Z,75.70
2023-01-02T05:28:55.038Z,75.90
2023-01-02T05:31:22.262Z,75.70
2023-01-02T05:33:53.381Z,75.60
2023-01-02T05:36:21.512Z,75.60
2023-01-02T05:38:48.671Z,75.70
2023-01-02T05:41:16.279Z,76.20
2023-01-02T05:43:43.086Z,76.50
2023-01-02T05:46:15.629Z,76.50
2023-01-02T05:48:44.521Z,77.40
2023-01-02T05:51:14.793Z,77.20
2023-01-02T05:53:41.811Z,77.80
2023-01-02T05:56:11.848Z,78.40
2023-01-02T05:58:41.383Z,79.00
2023-01-02T06:01:10.915Z,79.40
2023-01-02T06:03:38.201Z,79.10
2023-01-02T06:06:07.212Z,79.50
2023-01-02T06:08:34.615Z,79.30
2023-01-02T06:11:02.251Z,78.60
2023-01-02T06:13:30.609Z,78.70
2023-01-02T06:15:58.987Z,78.50
2023-01-02T06:18:26.752Z,79.10
2023-01-02T06:21:05.468Z,78.70
2023-01-02T06:23:32.355Z,77.60
2023-01-02T06:26:07.573Z,77.40
2023-01-02T06:28:34.479Z,77.30
2023-01-02T06:31:03.484Z,77.50
2023-01-02T06:33:30.814Z,77.50
2023-01-02T06:36:02.078Z,77.80
2023-01-02T06:38:29.229Z,76.80
2023-01-02T06:40:57.737Z,77.10
2023-01-02T06:43:25.277Z,76.60
2023-01-02T06:45:52.516Z,75.90
2023-01-02T06:48:19.604Z,75.60
2023-01-02T06:50:46.597Z,75.00
2023-01-02T06:53:13.915Z,74.80
2023-01-02T06:55:49.859Z,74.80
2023-01-02T06:58:19.480Z,73.90
2023-01-02T07:00:47.222Z,73.50
2023-01-02T07:03:14.673Z,73.50
2023-01-02T07:05:41.786Z,73.40
2023-01-02T07:08:09.185Z,73.30
2023-01-02T07:10:36.064Z,73.50
2023-01-02T07:13:03.217Z,73.50
2023-01-02T07:15:30.350Z,73.70
2023-01-02T07:17:57.136Z,73.40
2023-01-02T07:20:23.963Z,73.40
2023-01-02T07:22:52.166Z,73.20
2023-01-02T07:25:19.757Z,72.70
2023-01-02T07:27:46.906Z,72.30
2023-01-02T07:30:14.425Z,72.60
2023-01-02T07:32:41.406Z,72.90
2023-01-02T07:35:08.757Z,72.60
2023-01-02T07:37:35.499Z,72.50
2023-01-02T07:40:02.278Z,72.80
2023-01-02T07:42:29.044Z,72.70
2023-01-02T07:44:55.841Z,73.20
2023-01-02T07:47:22.549Z,72.80
2023-01-02T07:49:49.282Z,72.70
2023-01-02T07:52:16.026Z,72.70
2023-01-02T07:54:42.811Z,72.70
2023-01-02T07:57:09.555Z,71.90
2023-01-02T07:59:36.307Z,72.10
2023-01-02T08:02:03.162Z,72.50
2023-01-02T08:04:29.961Z,72.10
2023-01-02T08:06:56.795Z,72.10
2023-01-02T08:09:23.490Z,72.20
2023-01-02T08:11:50.259Z,72.40
2023-01-02T08:14:21.694Z,72.70
2023-01-02T08:16:50.396Z,72.50
2023-01-02T08:19:17.195Z,72.30
2023-01-02T08:21:43.968Z,70.50
2023-01-02T08:24:10.779Z,70.00
2023-01-02T08:26:38.693Z,69.80
2023-01-02T08:29:05.870Z,69.10
2023-01-02T08:31:32.683Z,69.20
2023-01-02T08:33:59.406Z,69.10
2023-01-02T08:36:26.319Z,69.00
2023-01-02T08:38:53.078Z,68.50
2023-01-02T08:41:33.213Z,68.60
2023-01-02T08:44:00.361Z,68.40
2023-01-02T08:46:28.448Z,68.70
2023-01-02T08:48:55.277Z,69.00
2023-01-02T08:51:22.018Z,68.60
2023-01-02T08:53:48.767Z,68.00
2023-01-02T08:56:18.930Z,68.10
2023-01-02T08:58:53.427Z,67.60
2023-01-02T09:01:20.522Z,67.50
2023-01-02T09:03:47.408Z,67.50
2023-01-02T09:06:18.138Z,67.20
2023-01-02T09:08:48.502Z,67.50
2023-01-02T09:11:21.747Z,68.40
2023-01-02T09:13:48.491Z,68.20
2023-01-02T09:16:15.270Z,67.10
2023-01-02T09:18:42.502Z,67.10
2023-01-02T09:21:09.904Z,66.80
2023-01-02T09:23:36.760Z,67.20
2023-01-02T09:26:06.567Z,66.60
2023-01-02T09:28:35.386Z,65.90
2023-01-02T09:31:16.490Z,65.60
2023-01-02T09:33:44.845Z,65.40
2023-01-02T09:36:14.269Z,65.80
2023-01-02T09:38:41.327Z,65.40
2023-01-02T09:41:39.860Z,65.60
2023-01-02T09:44:21.253Z,65.40
2023-01-02T09:46:54.185Z,64.90
2023-01-02T09:49:42.204Z,64.60
2023-01-02T09:52:15.195Z,64.50
2023-01-02T09:54:42.038Z,64.60
2023-01-02T09:57:27.072Z,64.50
2023-01-02T10:00:16.039Z,64.70
2023-01-02T10:03:11.355Z,64.70
2023-01-02T10:05:41.206Z,64.70
2023-01-02T10:08:26.447Z,64.90
2023-01-02T10:11:09.701Z,65.10
2023-01-02T10:14:17.974Z,65.50
2023-01-02T10:16:37.690Z,65.70
2023-01-02T10:19:12.358Z,65.80
2023-01-02T10:21:40.564Z,66.20
2023-01-02T10:24:17.362Z,66.80
2023-01-02T10:26:52.542Z,67.20
2023-01-02T10:29:37.889Z,68.30
2023-01-02T10:32:11.737Z,69.00
2023-01-02T10:35:10.896Z,69.40
2023-01-02T10:37:38.832Z,69.70
2023-01-02T10:40:07.066Z,70.00
2023-01-02T10:42:34.060Z,70.20
2023-01-02T10:45:01.374Z,70.80
2023-01-02T10:47:34.926Z,70.30
2023-01-02T10:50:04.919Z,70.60
2023-01-02T10:52:45.821Z,70.90
2023-01-02T10:55:13.167Z,71.00
2023-01-02T10:57:51.465Z,70.70
2023-01-02T11:00:22.539Z,70.30
2023-01-02T11:02:56.919Z,70.10
2023-01-02T11:05:27.431Z,70.80
2023-01-02T11:07:55.286Z,71.60
2023-01-02T11:10:43.734Z,72.30
2023-01-02T11:13:19.325Z,72.80
2023-01-02T11:15:56.205Z,72.60
2023-01-02T11:18:27.551Z,72.80
2023-01-02T11:21:03.882Z,72.50
2023-01-02T11:23:40.899Z,72.70
2023-01-02T11:26:19.313Z,72.60
2023-01-02T11:28:46.992Z,72.60
2023-01-02T11:31:16.518Z,72.60
2023-01-02T11:33:45.349Z,72.20
2023-01-02T11:36:12.031Z,72.00
2023-01-02T11:38:52.068Z,72.20
2023-01-02T11:42:08.433Z,71.90
2023-01-02T11:45:05.186Z,72.50
2023-01-02T11:47:37.682Z,74.00
2023-01-02T11:50:05.053Z,78.10
2023-01-02T11:53:07.776Z,80.10
2023-01-02T11:55:43.100Z,83.70
2023-01-02T11:58:19.840Z,83.70
2023-01-02T12:00:51.777Z,83.80
2023-01-02T12:03:23.583Z,83.20
2023-01-02T12:06:15.425Z,83.20
2023-01-02T12:09:03.399Z,82.00
2023-01-02T12:11:57.807Z,78.80
2023-01-02T12:14:30.085Z,78.20
2023-01-02T12:17:07.892Z,77.90
2023-01-02T12:19:40.784Z,76.00
2023-01-02T12:22:19.488Z,73.40
2023-01-02T12:25:12.557Z,73.00
2023-01-02T12:27:42.349Z,72.70
2023-01-02T12:30:22.679Z,71.90
2023-01-02T12:32:57.108Z,71.30
2023-01-02T12:35:55.814Z,70.40
2023-01-02T12:38:54.635Z,69.40
2023-01-02T12:42:01.430Z,68.50
2023-01-02T12:44:52.695Z,69.20
2023-01-02T12:47:33.901Z,69.40
2023-01-02T12:50:35.590Z,69.30
2023-01-02T12:53:20.094Z,69.50
2023-01-02T12:56:08.237Z,68.90
2023-01-02T12:58:52.014Z,69.70
2023-01-02T13:01:51.519Z,69.40
2023-01-02T13:04:30.334Z,69.60
2023-01-02T13:07:24.642Z,69.20
2023-01-02T13:09:53.503Z,69.70
2023-01-02T13:12:24.497Z,69.50
2023-01-02T13:14:54.117Z,69.40
2023-01-02T13:17:30.039Z,69.60
2023-01-02T13:20:34.360Z,70.10
2023-01-02T13:23:29.843Z,70.20
2023-01-02T13:26:16.239Z,70.70
2023-01-02T13:28:44.107Z,70.90
2023-01-02T13:31:44.772Z,71.20
2023-01-02T13:34:12.765Z,71.20
2023-01-02T13:36:42.753Z,71.10
2023-01-02T13:39:23.807Z,71.60
2023-01-02T13:42:15.126Z,72.00
2023-01-02T13:44:46.997Z,71.90
2023-01-02T13:47:34.668Z,72.00
2023-01-02T13:50:08.139Z,72.30
2023-01-02T13:52:35.117Z,72.20
2023-01-02T13:55:22.137Z,72.40
2023-01-02T13:58:18.127Z,72.70
2023-01-02T14:00:54.877Z,73.00
2023-01-02T14:03:22.989Z,73.20
2023-01-02T14:06:05.896Z,73.60
2023-01-02T14:09:04.552Z,73.50
2023-01-02T14:11:55.558Z,73.80
2023-01-02T14:14:43.023Z,73.70
2023-01-02T14:17:18.737Z,73.50
2023-01-02T14:19:45.861Z,73.40
2023-01-02T14:22:16.607Z,74.70
2023-01-02T14:24:52.960Z,74.50
2023-01-02T14:27:33.035Z,74.90
2023-01-02T14:30:05.155Z,75.20
2023-01-02T14:32:35.355Z,75.90
2023-01-02T14:35:06.912Z,76.10
2023-01-02T14:37:39.446Z,76.20
2023-01-02T14:40:11.180Z,76.10
2023-01-02T14:42:57.991Z,75.60
2023-01-02T14:45:28.126Z,75.60
2023-01-02T14:48:00.706Z,75.10
2023-01-02T14:50:33.535Z,74.70
2023-01-02T14:53:09.392Z,74.00
2023-01-02T14:55:41.976Z,74.20
2023-01-02T14:58:26.156Z,73.60
2023-01-02T15:01:00.706Z,72.90
2023-01-02T15:04:03.764Z,73.00
2023-01-02T15:06:41.605Z,72.50
2023-01-02T15:09:29.387Z,72.80
2023-01-02T15:12:17.908Z,73.50
2023-01-02T15:14:46.599Z,73.30
2023-01-02T15:17:18.519Z,73.20
2023-01-02T15:19:46.269Z,72.90
2023-01-02T15:22:17.503Z,73.60
2023-01-02T15:24:49.482Z,73.20
2023-01-02T15:27:28.320Z,73.00
2023-01-02T15:29:57.201Z,73.10
2023-01-02T15:32:27.156Z,73.10
2023-01-02T15:35:12.346Z,73.20
2023-01-02T15:37:47.259Z,73.20
2023-01-02T15:40:24.296Z,73.20
2023-01-02T15:43:12.399Z,73.10
2023-01-02T15:45:57.863Z,73.60
2023-01-02T15:48:29.969Z,73.60
2023-01-02T15:50:59.339Z,73.80
2023-01-02T15:53:40.996Z,73.70
2023-01-02T15:56:32.649Z,73.60
2023-01-02T15:58:59.498Z,73.90
2023-01-02T16:01:26.680Z,73.70
2023-01-02T16:04:03.015Z,73.90
2023-01-02T16:06:44.713Z,73.80
2023-01-02T16:09:22.630Z,74.00
2023-01-02T16:12:01.936Z,74.10
2023-01-02T16:14:43.827Z,73.70
2023-01-02T16:17:28.338Z,73.80
2023-01-02T16:20:04.855Z,73.80
2023-01-02T16:22:45.834Z,73.90
2023-01-02T16:25:15.088Z,74.10
2023-01-02T16:27:54.430Z,73.90
2023-01-02T16:30:39.071Z,73.80
2023-01-02T16:33:22.988Z,73.90
2023-01-02T16:36:00.551Z,74.40
2023-01-02T16:38:28.704Z,74.20
2023-01-02T16:41:04.731Z,74.50
2023-01-02T16:43:36.751Z,74.70
2023-01-02T16:46:12.348Z,74.50
2023-01-02T16:48:41.240Z,74.60
2023-01-02T16:51:08.068Z,74.40
2023-01-02T16:53:34.873Z,74.90
2023-01-02T16:56:01.601Z,74.70
2023-01-02T16:58:29.802Z,74.70
2023-01-02T17:00:57.002Z,74.60
2023-01-02T17:03:26.715Z,74.80
2023-01-02T17:06:02.099Z,75.10
2023-01-02T17:08:33.516Z,75.20
2023-01-02T17:11:00.743Z,75.30
2023-01-02T17:13:29.007Z,75.30
2023-01-02T17:15:56.690Z,75.10
2023-01-02T17:18:23.735Z,75.20
2023-01-02T17:20:50.839Z,74.90
2023-01-02T17:23:19.438Z,74.80
2023-01-02T17:25:46.648Z,75.10
2023-01-02T17:28:14.236Z,75.10
2023-01-02T17:30:42.171Z,75.40
2023-01-02T17:33:08.926Z,75.40
2023-01-02T17:35:35.692Z,74.60
2023-01-02T17:38:02.502Z,75.30
2023-01-02T17:40:29.263Z,75.30
2023-01-02T17:42:57.614Z,75.00
2023-01-02T17:45:24.719Z,75.40
2023-01-02T17:48:07.542Z,75.60
2023-01-02T17:50:37.577Z,75.50
2023-01-02T17:53:07.530Z,75.20
2023-01-02T17:55:34.357Z,75.40
2023-01-02T17:58:01.249Z,76.10
2023-01-02T18:00:28.264Z,75.90
2023-01-02T18:02:55.216Z,76.40
2023-01-02T18:05:23.077Z,75.80
2023-01-02T18:07:49.984Z,75.50
2023-01-02T18:10:20.348Z,75.80
2023-01-02T18:12:49.549Z,75.70
2023-01-02T18:15:19.644Z,75.90
2023-01-02T18:17:46.721Z,75.70
2023-01-02T18:20:16.264Z,75.90
2023-01-02T18:22:49.402Z,76.00
2023-01-02T18:25:27.014Z,75.70
2023-01-02T18:28:00.519Z,75.30
2023-01-02T18:30:27.746Z,75.50
2023-01-02T18:33:07.131Z,75.20
2023-01-02T18:38:39.560Z,74.40
2023-01-02T18:41:28.158Z,74.30
2023-01-02T18:44:14.291Z,74.50
2023-01-02T18:47:02.304Z,73.80
2023-01-02T18:49:32.610Z,74.10
2023-01-02T18:52:24.264Z,74.50
2023-01-02T18:55:06.275Z,73.60
2023-01-02T18:57:35.629Z,72.80
2023-01-02T19:00:20.350Z,72.50
2023-01-02T19:03:04.615Z,72.70
2023-01-02T19:05:39.937Z,73.00
2023-01-02T19:08:08.702Z,73.00
2023-01-02T19:10:57.605Z,73.40
2023-01-02T19:13:32.451Z,73.70
2023-01-02T19:16:15.005Z,73.90
2023-01-02T19:18:41.668Z,74.00
2023-01-02T19:21:28.409Z,74.30
2023-01-02T19:24:00.738Z,75.10
2023-01-02T19:26:28.764Z,75.90
2023-01-02T19:29:07.135Z,75.80
2023-01-02T19:31:47.690Z,76.20
2023-01-02T19:34:50.683Z,77.50
2023-01-02T19:37:35.664Z,80.60
2023-01-02T19:40:07.381Z,82.40
2023-01-02T19:42:38.549Z,82.40
2023-01-02T19:45:16.195Z,82.30
2023-01-02T19:47:43.054Z,82.70
2023-01-02T19:50:16.331Z,82.70
2023-01-02T19:52:43.460Z,82.10
2023-01-02T19:55:11.751Z,81.00
2023-01-02T19:57:38.761Z,80.30
2023-01-02T20:00:09.215Z,79.80
2023-01-02T20:02:40.158Z,80.40
2023-01-02T20:05:07.264Z,79.40
2023-01-02T20:07:33.968Z,80.20
2023-01-02T20:10:00.795Z,79.50
2023-01-02T20:12:30.346Z,79.20
2023-01-02T20:15:05.528Z,79.00
2023-01-02T20:17:33.548Z,78.50
2023-01-02T20:20:00.736Z,78.20
2023-01-02T20:22:28.763Z,78.70
2023-01-02T20:24:55.891Z,78.20
2023-01-02T20:27:23.027Z,77.70
2023-01-02T20:29:51.055Z,77.90
2023-01-02T20:32:18.615Z,77.80
2023-01-02T20:34:45.323Z,78.30
2023-01-02T20:37:12.180Z,78.10
2023-01-02T20:39:38.945Z,77.60
2023-01-02T20:42:13.023Z,77.60
2023-01-02T20:44:40.595Z,77.50
2023-01-02T20:47:07.961Z,78.30
2023-01-02T20:49:34.864Z,78.00
2023-01-02T20:52:02.358Z,77.50
2023-01-02T20:54:29.985Z,77.40
2023-01-02T20:56:56.903Z,77.70
2023-01-02T20:59:23.715Z,77.20
2023-01-02T21:01:50.996Z,77.30
2023-01-02T21:04:22.662Z,77.20
2023-01-02T21:06:51.846Z,76.70
2023-01-02T21:09:18.554Z,77.50
2023-01-02T21:11:45.815Z,77.50
2023-01-02T21:14:13.821Z,77.20
2023-01-02T21:16:40.971Z,77.00
2023-01-02T21:19:07.716Z,77.00
2023-01-02T21:21:34.665Z,77.10
2023-01-02T21:24:01.608Z,77.20
2023-01-02T21:26:28.421Z,77.50
2023-01-02T21:28:55.142Z,77.00
2023-01-02T21:31:23.361Z,77.20
2023-01-02T21:33:50.325Z,77.20
2023-01-02T21:36:19.279Z,77.40
2023-01-02T21:38:46.098Z,77.20
2023-01-02T21:41:31.725Z,77.50
2023-01-02T21:43:58.697Z,77.60
2023-01-02T21:46:25.533Z,77.90
2023-01-02T21:48:52.351Z,77.40
2023-01-02T21:51:19.086Z,77.50
2023-01-02T21:53:46.004Z,77.60
2023-01-02T21:56:13.843Z,77.20
2023-01-02T21:58:40.998Z,77.20
2023-01-02T22:01:08.020Z,77.10
2023-01-02T22:03:35.727Z,76.90
2023-01-02T22:06:02.613Z,76.70
2023-01-02T22:08:29.457Z,76.80
2023-01-02T22:11:16.182Z,77.30
2023-01-02T22:13:42.923Z,77.10
2023-01-02T22:16:10.100Z,77.20
2023-01-02T22:18:38.607Z,76.80
2023-01-02T22:21:05.672Z,77.10
2023-01-02T22:23:33.125Z,76.80
2023-01-02T22:26:00.522Z,77.10
2023-01-02T22:28:27.278Z,77.10
2023-01-02T22:30:54.356Z,77.30
2023-01-02T22:33:21.237Z,77.50
2023-01-02T22:35:48.351Z,77.10
2023-01-02T22:38:15.482Z,76.70
2023-01-02T22:40:42.486Z,76.50
2023-01-02T22:43:12.638Z,76.70
2023-01-02T22:45:49.364Z,76.90
2023-01-02T22:48:23.125Z,76.50
2023-01-02T22:50:55.624Z,76.50
2023-01-02T22:53:26.762Z,76.50
2023-01-02T22:55:54.077Z,76.00
2023-01-02T22:58:22.029Z,75.70
2023-01-02T23:01:01.640Z,75.70
2023-01-02T23:03:43.798Z,76.00
2023-01-02T23:06:10.877Z,75.70
2023-01-02T23:08:38.327Z,75.20
2023-01-02T23:11:05.787Z,75.20
2023-01-02T23:13:34.424Z,75.20
2023-01-02T23:16:20.862Z,74.50
2023-01-02T23:19:06.153Z,74.60
2023-01-02T23:21:35.152Z,74.90
2023-01-02T23:24:02.792Z,75.10
2023-01-02T23:26:34.540Z,75.40
2023-01-02T23:29:09.021Z,75.70
2023-01-02T23:31:38.717Z,75.60
2023-01-02T23:34:05.956Z,75.50
2023-01-02T23:36:32.976Z,75.70
2023-01-02T23:38:59.801Z,75.50
2023-01-02T23:41:26.779Z,75.70
2023-01-02T23:43:53.859Z,75.50
2023-01-02T23:46:20.963Z,75.80
2023-01-02T23:48:49.216Z,75.80
2023-01-02T23:51:16.280Z,75.80
2023-01-02T23:53:43.285Z,75.90
2023-01-02T23:56:20.043Z,75.80
2023-01-02T23:58:48.799Z,75.60
